KCOU

Columbia Regional Airport

Airport
ICAO code
KCOU
Summary
ICAO Region
NAM
ICAO Territory
Location

Columbia, Missouri,

Elevation
889 ft
Coordinates
38° 49' 5" N , 92° 13' 11" W
KCC
Metar
Observation
KCOU 070854Z AUTO 01008KT 10SM CLR 11/06 A3029 RMK AO2 SLP253 T01060061 51008
Station
Columbia, Columbia Regional Airport
Date/Time
2022-10-07 08:54:00
Wind direction
10°
Wind speed
08 kts
Lowest cloud amount
n/a
Temperature
10.6°C
Dew point
6.1°C
Humidity
73%
Weather condition
n/a

Description

Columbia Regional Airport is a public use airport located 19 km southeast of the central business district of Columbia, in Boone County, Missouri.

Climatology

Humid continental climate (Köppen climate classification Dfa) - characterized by four seasons: cold, windy, snowy winters, mild springs, hot, humid summers, and crisp and relatively short autumns. Precipitation reaches its lowest in January and February and peaks in summer and latter half of spring.

Airport map

Aerial View

SKYbrary Partners:

Safety knowledge contributed by: